N532LG KSAV-KSAV
Flight info
| Callsign | N532LG |
|---|---|
| Flight time | N/A |
| Altitude | 1000 |
| Route | HELICOPTER VFR NORTH SAVANNAH POWERLINE |
| Aircraft | H500/L-V/N |
Departure
| Time | 2026-04-20 13:31 |
|---|---|
| Airport | Savannah Hilton Head International Airport (KSAV) |
Arrival
| Time | N/A |
|---|---|
| Airport | Savannah Hilton Head International Airport (KSAV) |
| Time | Latitude | Longitude | Altitude | Speed | Heading |
|---|---|---|---|---|---|
| 2026-04-20 13:17 | 32.12541 | -81.20595 | 33 ft | 0 kts | 181° |
| 2026-04-20 13:29 | 32.12544 | -81.20596 | 47 ft | 1 kts | 178° |
| 2026-04-20 13:30 | 32.12535 | -81.20580 | 70 ft | 7 kts | 11° |
| 2026-04-20 13:30 | 32.12661 | -81.20581 | 156 ft | 34 kts | 8° |
| 2026-04-20 13:30 | 32.13013 | -81.20532 | 268 ft | 62 kts | 9° |
| 2026-04-20 13:30 | 32.13450 | -81.20464 | 519 ft | 64 kts | 4° |
| 2026-04-20 13:31 | 32.13943 | -81.20425 | 696 ft | 75 kts | 2° |
| 2026-04-20 13:31 | 32.14487 | -81.20421 | 820 ft | 81 kts | 360° |
| 2026-04-20 13:31 | 32.15051 | -81.20528 | 916 ft | 84 kts | 356° |
| 2026-04-20 13:31 | 32.15639 | -81.20655 | 1007 ft | 86 kts | 355° |
| 2026-04-20 13:32 | 32.16239 | -81.20779 | 1101 ft | 89 kts | 356° |
| 2026-04-20 13:32 | 32.16885 | -81.20900 | 1077 ft | 98 kts | 356° |
| 2026-04-20 13:32 | 32.17584 | -81.21028 | 1071 ft | 103 kts | 356° |
| 2026-04-20 13:32 | 32.18284 | -81.21161 | 1069 ft | 101 kts | 356° |
| 2026-04-20 13:33 | 32.18973 | -81.21286 | 1067 ft | 101 kts | 356° |
| 2026-04-20 13:33 | 32.19664 | -81.21411 | 1066 ft | 100 kts | 356° |
| 2026-04-20 13:33 | 32.20351 | -81.21544 | 1068 ft | 100 kts | 356° |
| 2026-04-20 13:33 | 32.21041 | -81.21680 | 1069 ft | 100 kts | 356° |
| 2026-04-20 13:34 | 32.21731 | -81.21821 | 1065 ft | 100 kts | 356° |
| 2026-04-20 13:34 | 32.22408 | -81.21959 | 1067 ft | 99 kts | 356° |
| 2026-04-20 13:34 | 32.23072 | -81.21934 | 1067 ft | 94 kts | 17° |
| 2026-04-20 13:34 | 32.23695 | -81.21728 | 1066 ft | 94 kts | 20° |
| 2026-04-20 13:35 | 32.24321 | -81.21506 | 1067 ft | 94 kts | 20° |
| 2026-04-20 13:35 | 32.24954 | -81.21268 | 1063 ft | 97 kts | 21° |
| 2026-04-20 13:35 | 32.25609 | -81.21008 | 1070 ft | 101 kts | 21° |
| 2026-04-20 13:35 | 32.26259 | -81.20739 | 1063 ft | 97 kts | 22° |
| 2026-04-20 13:36 | 32.26885 | -81.20471 | 1066 ft | 95 kts | 23° |
| 2026-04-20 13:36 | 32.27504 | -81.20193 | 1060 ft | 95 kts | 24° |
| 2026-04-20 13:36 | 32.28127 | -81.19902 | 1064 ft | 95 kts | 25° |
| 2026-04-20 13:36 | 32.28646 | -81.19613 | 712 ft | 60 kts | 26° |
| 2026-04-20 13:37 | 32.29041 | -81.19561 | 515 ft | 53 kts | 4° |
| 2026-04-20 13:37 | 32.29458 | -81.19570 | 463 ft | 66 kts | 14° |
| 2026-04-20 13:37 | 32.29936 | -81.19503 | 392 ft | 75 kts | 8° |
| 2026-04-20 13:37 | 32.30457 | -81.19410 | 308 ft | 78 kts | 11° |
| 2026-04-20 13:38 | 32.30988 | -81.19284 | 243 ft | 73 kts | 34° |
| 2026-04-20 13:38 | 32.31435 | -81.19059 | 228 ft | 69 kts | 12° |
| 2026-04-20 13:38 | 32.31930 | -81.18898 | 285 ft | 79 kts | 15° |
| 2026-04-20 13:38 | 32.32498 | -81.18723 | 303 ft | 91 kts | 13° |
| 2026-04-20 13:39 | 32.33151 | -81.18575 | 309 ft | 96 kts | 13° |
| 2026-04-20 13:39 | 32.33805 | -81.18430 | 346 ft | 96 kts | 14° |
| 2026-04-20 13:39 | 32.34384 | -81.18150 | 403 ft | 81 kts | 30° |
| 2026-04-20 13:39 | 32.34900 | -81.17920 | 519 ft | 81 kts | 12° |
| 2026-04-20 13:40 | 32.35457 | -81.17735 | 513 ft | 85 kts | 18° |
| 2026-04-20 13:40 | 32.35947 | -81.17382 | 524 ft | 79 kts | 46° |
| 2026-04-20 13:40 | 32.36106 | -81.16789 | 545 ft | 77 kts | 97° |
| 2026-04-20 13:40 | 32.36032 | -81.16141 | 513 ft | 84 kts | 91° |
| 2026-04-20 13:41 | 32.35954 | -81.15404 | 410 ft | 94 kts | 91° |
| 2026-04-20 13:41 | 32.35866 | -81.14608 | 290 ft | 97 kts | 92° |
| 2026-04-20 13:41 | 32.35852 | -81.13859 | 278 ft | 88 kts | 81° |
| 2026-04-20 13:41 | 32.35826 | -81.13212 | 374 ft | 76 kts | 108° |
| 2026-04-20 13:42 | 32.35714 | -81.12714 | 295 ft | 35 kts | 39° |
| 2026-04-20 13:42 | 32.35895 | -81.12620 | 33 ft | 2 kts | 2° |
| 2026-04-20 13:42 | 32.35897 | -81.12620 | 30 ft | 0 kts | 1° |